sensor_id;sensor_type;location;lat;lon;timestamp;temperature;humidity
19555;DHT22;9924;50.828;6.440;2023-11-21T00:00:13;8.70;99.90
19555;DHT22;9924;50.828;6.440;2023-11-21T00:02:40;8.70;99.90
19555;DHT22;9924;50.828;6.440;2023-11-21T00:05:10;8.70;99.90
19555;DHT22;9924;50.828;6.440;2023-11-21T00:07:37;8.70;99.90
19555;DHT22;9924;50.828;6.440;2023-11-21T00:10:03;8.70;99.90
19555;DHT22;9924;50.828;6.440;2023-11-21T00:12:31;8.70;99.90
19555;DHT22;9924;50.828;6.440;2023-11-21T00:14:57;8.60;99.90
19555;DHT22;9924;50.828;6.440;2023-11-21T00:17:23;8.60;99.90
19555;DHT22;9924;50.828;6.440;2023-11-21T00:19:50;8.60;99.90
19555;DHT22;9924;50.828;6.440;2023-11-21T00:22:18;8.60;99.90
19555;DHT22;9924;50.828;6.440;2023-11-21T00:24:43;8.50;99.90
19555;DHT22;9924;50.828;6.440;2023-11-21T00:27:09;8.50;99.90
19555;DHT22;9924;50.828;6.440;2023-11-21T00:29:35;8.50;99.90
19555;DHT22;9924;50.828;6.440;2023-11-21T00:32:01;8.50;99.90
19555;DHT22;9924;50.828;6.440;2023-11-21T00:34:27;8.50;99.90
19555;DHT22;9924;50.828;6.440;2023-11-21T00:36:53;8.50;99.90
19555;DHT22;9924;50.828;6.440;2023-11-21T00:39:19;8.50;99.90
19555;DHT22;9924;50.828;6.440;2023-11-21T00:41:44;8.50;99.90
19555;DHT22;9924;50.828;6.440;2023-11-21T00:44:11;8.50;99.90
19555;DHT22;9924;50.828;6.440;2023-11-21T00:46:36;8.50;99.90
19555;DHT22;9924;50.828;6.440;2023-11-21T00:49:02;8.40;99.90
19555;DHT22;9924;50.828;6.440;2023-11-21T00:51:30;8.40;99.90
19555;DHT22;9924;50.828;6.440;2023-11-21T00:53:55;8.40;99.90
19555;DHT22;9924;50.828;6.440;2023-11-21T00:56:21;8.40;99.90
19555;DHT22;9924;50.828;6.440;2023-11-21T00:58:47;8.40;99.90
19555;DHT22;9924;50.828;6.440;2023-11-21T01:01:21;8.40;99.90
19555;DHT22;9924;50.828;6.440;2023-11-21T01:03:50;8.30;99.90
19555;DHT22;9924;50.828;6.440;2023-11-21T01:06:16;8.30;99.90
19555;DHT22;9924;50.828;6.440;2023-11-21T01:08:43;8.40;99.90
19555;DHT22;9924;50.828;6.440;2023-11-21T01:11:09;8.40;99.90
19555;DHT22;9924;50.828;6.440;2023-11-21T01:13:40;8.30;99.90
19555;DHT22;9924;50.828;6.440;2023-11-21T01:16:06;8.20;99.90
19555;DHT22;9924;50.828;6.440;2023-11-21T01:18:32;8.20;99.90
19555;DHT22;9924;50.828;6.440;2023-11-21T01:20:58;8.30;99.90
19555;DHT22;9924;50.828;6.440;2023-11-21T01:23:27;8.30;99.90
19555;DHT22;9924;50.828;6.440;2023-11-21T01:25:56;8.30;99.90
19555;DHT22;9924;50.828;6.440;2023-11-21T01:28:22;8.30;99.90
19555;DHT22;9924;50.828;6.440;2023-11-21T01:30:48;8.30;99.90
19555;DHT22;9924;50.828;6.440;2023-11-21T01:33:14;8.30;99.90
19555;DHT22;9924;50.828;6.440;2023-11-21T01:35:41;8.30;99.90
19555;DHT22;9924;50.828;6.440;2023-11-21T01:38:08;8.30;99.90
19555;DHT22;9924;50.828;6.440;2023-11-21T01:40:34;8.40;99.90
19555;DHT22;9924;50.828;6.440;2023-11-21T01:43:00;8.30;99.90
19555;DHT22;9924;50.828;6.440;2023-11-21T01:45:29;8.30;99.90
19555;DHT22;9924;50.828;6.440;2023-11-21T01:47:56;8.30;99.90
19555;DHT22;9924;50.828;6.440;2023-11-21T01:50:23;8.40;99.90
19555;DHT22;9924;50.828;6.440;2023-11-21T01:52:50;8.40;99.90
19555;DHT22;9924;50.828;6.440;2023-11-21T01:55:17;8.40;99.90
19555;DHT22;9924;50.828;6.440;2023-11-21T01:57:45;8.40;99.90
19555;DHT22;9924;50.828;6.440;2023-11-21T02:00:11;8.40;99.90
19555;DHT22;9924;50.828;6.440;2023-11-21T02:02:44;8.40;99.90
19555;DHT22;9924;50.828;6.440;2023-11-21T02:05:11;8.50;99.90
19555;DHT22;9924;50.828;6.440;2023-11-21T02:07:39;8.50;99.90
19555;DHT22;9924;50.828;6.440;2023-11-21T02:10:07;8.60;99.90
19555;DHT22;9924;50.828;6.440;2023-11-21T02:12:33;8.60;99.90
19555;DHT22;9924;50.828;6.440;2023-11-21T02:15:02;8.70;99.90
19555;DHT22;9924;50.828;6.440;2023-11-21T02:17:31;8.70;99.90
19555;DHT22;9924;50.828;6.440;2023-11-21T02:19:58;8.80;99.90
19555;DHT22;9924;50.828;6.440;2023-11-21T02:22:27;8.70;99.90
19555;DHT22;9924;50.828;6.440;2023-11-21T02:24:56;8.70;99.90
19555;DHT22;9924;50.828;6.440;2023-11-21T02:27:24;8.80;99.90
19555;DHT22;9924;50.828;6.440;2023-11-21T02:29:49;8.80;99.90
19555;DHT22;9924;50.828;6.440;2023-11-21T02:32:16;8.70;99.90
19555;DHT22;9924;50.828;6.440;2023-11-21T02:34:44;8.60;99.90
19555;DHT22;9924;50.828;6.440;2023-11-21T02:37:10;8.50;99.90
19555;DHT22;9924;50.828;6.440;2023-11-21T02:39:35;8.50;99.90
19555;DHT22;9924;50.828;6.440;2023-11-21T02:42:01;8.50;99.90
19555;DHT22;9924;50.828;6.440;2023-11-21T02:44:27;8.60;99.90
19555;DHT22;9924;50.828;6.440;2023-11-21T02:46:53;8.50;99.90
19555;DHT22;9924;50.828;6.440;2023-11-21T02:49:18;8.60;99.90
19555;DHT22;9924;50.828;6.440;2023-11-21T02:51:44;8.60;99.90
19555;DHT22;9924;50.828;6.440;2023-11-21T02:54:11;8.60;99.90
19555;DHT22;9924;50.828;6.440;2023-11-21T02:56:37;8.60;99.90
19555;DHT22;9924;50.828;6.440;2023-11-21T02:59:03;8.60;99.90
19555;DHT22;9924;50.828;6.440;2023-11-21T03:01:28;8.60;99.90
19555;DHT22;9924;50.828;6.440;2023-11-21T03:03:54;8.50;99.90
19555;DHT22;9924;50.828;6.440;2023-11-21T03:06:21;8.50;99.90
19555;DHT22;9924;50.828;6.440;2023-11-21T03:08:47;8.50;99.90
19555;DHT22;9924;50.828;6.440;2023-11-21T03:11:13;8.50;99.90
19555;DHT22;9924;50.828;6.440;2023-11-21T03:13:42;8.60;99.90
19555;DHT22;9924;50.828;6.440;2023-11-21T03:16:12;8.50;99.90
19555;DHT22;9924;50.828;6.440;2023-11-21T03:18:38;8.50;99.90
19555;DHT22;9924;50.828;6.440;2023-11-21T03:21:05;8.60;99.90
19555;DHT22;9924;50.828;6.440;2023-11-21T03:23:31;8.60;99.90
19555;DHT22;9924;50.828;6.440;2023-11-21T03:25:57;8.70;99.90
19555;DHT22;9924;50.828;6.440;2023-11-21T03:28:23;8.70;99.90
19555;DHT22;9924;50.828;6.440;2023-11-21T03:30:49;8.70;99.90
19555;DHT22;9924;50.828;6.440;2023-11-21T03:33:15;8.70;99.90
19555;DHT22;9924;50.828;6.440;2023-11-21T03:35:40;8.70;99.90
19555;DHT22;9924;50.828;6.440;2023-11-21T03:38:07;8.70;99.90
19555;DHT22;9924;50.828;6.440;2023-11-21T03:40:36;8.80;99.90
19555;DHT22;9924;50.828;6.440;2023-11-21T03:43:02;8.80;99.90
19555;DHT22;9924;50.828;6.440;2023-11-21T03:45:28;8.80;99.90
19555;DHT22;9924;50.828;6.440;2023-11-21T03:47:56;8.80;99.90
19555;DHT22;9924;50.828;6.440;2023-11-21T03:50:22;8.80;99.90
19555;DHT22;9924;50.828;6.440;2023-11-21T03:52:47;8.80;99.90
19555;DHT22;9924;50.828;6.440;2023-11-21T03:55:13;8.80;99.90
19555;DHT22;9924;50.828;6.440;2023-11-21T03:57:40;8.90;99.90
19555;DHT22;9924;50.828;6.440;2023-11-21T04:00:06;8.90;99.90
19555;DHT22;9924;50.828;6.440;2023-11-21T04:02:34;9.00;99.90
19555;DHT22;9924;50.828;6.440;2023-11-21T04:05:00;9.00;99.90
19555;DHT22;9924;50.828;6.440;2023-11-21T04:07:26;9.00;99.90
19555;DHT22;9924;50.828;6.440;2023-11-21T04:09:52;9.00;99.90
19555;DHT22;9924;50.828;6.440;2023-11-21T04:12:19;9.00;99.90
19555;DHT22;9924;50.828;6.440;2023-11-21T04:14:45;8.90;99.90
19555;DHT22;9924;50.828;6.440;2023-11-21T04:17:10;8.90;99.90
19555;DHT22;9924;50.828;6.440;2023-11-21T04:19:36;8.80;99.90
19555;DHT22;9924;50.828;6.440;2023-11-21T04:22:02;8.80;99.90
19555;DHT22;9924;50.828;6.440;2023-11-21T04:24:27;8.80;99.90
19555;DHT22;9924;50.828;6.440;2023-11-21T04:26:53;8.80;99.90
19555;DHT22;9924;50.828;6.440;2023-11-21T04:29:19;8.80;99.90
19555;DHT22;9924;50.828;6.440;2023-11-21T04:31:46;8.70;99.90
19555;DHT22;9924;50.828;6.440;2023-11-21T04:34:14;8.70;99.90
19555;DHT22;9924;50.828;6.440;2023-11-21T04:36:40;8.60;99.90
19555;DHT22;9924;50.828;6.440;2023-11-21T04:39:05;8.70;99.90
19555;DHT22;9924;50.828;6.440;2023-11-21T04:41:32;8.70;99.90
19555;DHT22;9924;50.828;6.440;2023-11-21T04:43:58;8.80;99.90
19555;DHT22;9924;50.828;6.440;2023-11-21T04:46:26;8.80;99.90
19555;DHT22;9924;50.828;6.440;2023-11-21T04:48:52;8.80;99.90
19555;DHT22;9924;50.828;6.440;2023-11-21T04:51:17;8.80;99.90
19555;DHT22;9924;50.828;6.440;2023-11-21T04:53:43;8.80;99.90
19555;DHT22;9924;50.828;6.440;2023-11-21T04:56:09;8.80;99.90
19555;DHT22;9924;50.828;6.440;2023-11-21T04:58:35;8.70;99.90
19555;DHT22;9924;50.828;6.440;2023-11-21T05:01:01;8.70;99.90
19555;DHT22;9924;50.828;6.440;2023-11-21T05:03:27;8.70;99.90
19555;DHT22;9924;50.828;6.440;2023-11-21T05:05:55;8.70;99.90
19555;DHT22;9924;50.828;6.440;2023-11-21T05:08:21;8.70;99.90
19555;DHT22;9924;50.828;6.440;2023-11-21T05:10:48;8.80;99.90
19555;DHT22;9924;50.828;6.440;2023-11-21T05:13:14;8.80;99.90
19555;DHT22;9924;50.828;6.440;2023-11-21T05:15:43;8.70;99.90
19555;DHT22;9924;50.828;6.440;2023-11-21T05:18:09;8.70;99.90
19555;DHT22;9924;50.828;6.440;2023-11-21T05:20:35;8.70;99.90
19555;DHT22;9924;50.828;6.440;2023-11-21T05:23:01;8.70;99.90
19555;DHT22;9924;50.828;6.440;2023-11-21T05:25:27;8.70;99.90
19555;DHT22;9924;50.828;6.440;2023-11-21T05:27:53;8.70;99.90
19555;DHT22;9924;50.828;6.440;2023-11-21T05:30:22;8.60;99.90
19555;DHT22;9924;50.828;6.440;2023-11-21T05:32:48;8.70;99.90
19555;DHT22;9924;50.828;6.440;2023-11-21T05:35:15;8.60;99.90
19555;DHT22;9924;50.828;6.440;2023-11-21T05:37:45;8.60;99.90
19555;DHT22;9924;50.828;6.440;2023-11-21T05:40:11;8.60;99.90
19555;DHT22;9924;50.828;6.440;2023-11-21T05:42:39;8.60;99.90
19555;DHT22;9924;50.828;6.440;2023-11-21T05:45:06;8.60;99.90
19555;DHT22;9924;50.828;6.440;2023-11-21T05:47:45;8.70;99.90
19555;DHT22;9924;50.828;6.440;2023-11-21T05:50:13;8.70;99.90
19555;DHT22;9924;50.828;6.440;2023-11-21T05:52:43;8.80;99.90
19555;DHT22;9924;50.828;6.440;2023-11-21T05:55:09;8.80;99.90
19555;DHT22;9924;50.828;6.440;2023-11-21T05:57:36;8.80;99.90
19555;DHT22;9924;50.828;6.440;2023-11-21T06:00:13;8.90;99.90
19555;DHT22;9924;50.828;6.440;2023-11-21T06:02:48;8.80;99.90
19555;DHT22;9924;50.828;6.440;2023-11-21T06:05:25;8.70;99.90
19555;DHT22;9924;50.828;6.440;2023-11-21T06:07:55;8.70;99.90
19555;DHT22;9924;50.828;6.440;2023-11-21T06:10:24;8.70;99.90
19555;DHT22;9924;50.828;6.440;2023-11-21T06:12:50;8.70;99.90
19555;DHT22;9924;50.828;6.440;2023-11-21T06:15:16;8.70;99.90
19555;DHT22;9924;50.828;6.440;2023-11-21T06:17:44;8.60;99.90
19555;DHT22;9924;50.828;6.440;2023-11-21T06:20:15;8.60;99.90
19555;DHT22;9924;50.828;6.440;2023-11-21T06:22:44;8.60;99.90
19555;DHT22;9924;50.828;6.440;2023-11-21T06:25:10;8.60;99.90
19555;DHT22;9924;50.828;6.440;2023-11-21T06:27:40;8.70;99.90
19555;DHT22;9924;50.828;6.440;2023-11-21T06:30:06;8.70;99.90
19555;DHT22;9924;50.828;6.440;2023-11-21T06:32:32;8.70;99.90
19555;DHT22;9924;50.828;6.440;2023-11-21T06:34:58;8.70;99.90
19555;DHT22;9924;50.828;6.440;2023-11-21T06:37:28;8.80;99.90
19555;DHT22;9924;50.828;6.440;2023-11-21T06:39:54;8.80;99.90
19555;DHT22;9924;50.828;6.440;2023-11-21T06:42:20;8.90;99.90
19555;DHT22;9924;50.828;6.440;2023-11-21T06:44:46;8.90;99.90
19555;DHT22;9924;50.828;6.440;2023-11-21T06:47:14;9.00;99.90
19555;DHT22;9924;50.828;6.440;2023-11-21T06:49:42;8.90;99.90
19555;DHT22;9924;50.828;6.440;2023-11-21T06:52:08;9.00;99.90
19555;DHT22;9924;50.828;6.440;2023-11-21T06:54:34;9.00;99.90
19555;DHT22;9924;50.828;6.440;2023-11-21T06:57:00;9.00;99.90
19555;DHT22;9924;50.828;6.440;2023-11-21T06:59:28;9.00;99.90
19555;DHT22;9924;50.828;6.440;2023-11-21T07:01:54;9.10;99.90
19555;DHT22;9924;50.828;6.440;2023-11-21T07:04:20;9.00;99.90
19555;DHT22;9924;50.828;6.440;2023-11-21T07:06:46;9.10;99.90
19555;DHT22;9924;50.828;6.440;2023-11-21T07:09:12;9.10;99.90
19555;DHT22;9924;50.828;6.440;2023-11-21T07:11:38;9.10;99.90
19555;DHT22;9924;50.828;6.440;2023-11-21T07:14:04;9.10;99.90
19555;DHT22;9924;50.828;6.440;2023-11-21T07:16:36;9.00;99.90
19555;DHT22;9924;50.828;6.440;2023-11-21T07:19:05;9.00;99.90
19555;DHT22;9924;50.828;6.440;2023-11-21T07:21:34;9.00;99.90
19555;DHT22;9924;50.828;6.440;2023-11-21T07:24:02;9.00;99.90
19555;DHT22;9924;50.828;6.440;2023-11-21T07:26:28;9.10;99.90
19555;DHT22;9924;50.828;6.440;2023-11-21T07:28:54;9.10;99.90
19555;DHT22;9924;50.828;6.440;2023-11-21T07:31:22;9.10;99.90
19555;DHT22;9924;50.828;6.440;2023-11-21T07:33:48;9.20;99.90
19555;DHT22;9924;50.828;6.440;2023-11-21T07:36:14;9.20;99.90
19555;DHT22;9924;50.828;6.440;2023-11-21T07:38:41;9.30;99.90
19555;DHT22;9924;50.828;6.440;2023-11-21T07:41:08;9.30;99.90
19555;DHT22;9924;50.828;6.440;2023-11-21T07:43:35;9.30;99.90
19555;DHT22;9924;50.828;6.440;2023-11-21T07:46:02;9.30;99.90
19555;DHT22;9924;50.828;6.440;2023-11-21T07:48:31;9.40;99.90
19555;DHT22;9924;50.828;6.440;2023-11-21T07:50:57;9.40;99.90
19555;DHT22;9924;50.828;6.440;2023-11-21T07:53:27;9.40;99.90
19555;DHT22;9924;50.828;6.440;2023-11-21T07:55:58;9.40;99.90
19555;DHT22;9924;50.828;6.440;2023-11-21T07:58:24;9.40;99.90
19555;DHT22;9924;50.828;6.440;2023-11-21T08:00:50;9.30;99.90
19555;DHT22;9924;50.828;6.440;2023-11-21T08:03:16;9.30;99.90
19555;DHT22;9924;50.828;6.440;2023-11-21T08:05:42;9.30;99.90
19555;DHT22;9924;50.828;6.440;2023-11-21T08:08:08;9.30;99.90
19555;DHT22;9924;50.828;6.440;2023-11-21T08:10:34;9.30;99.90
19555;DHT22;9924;50.828;6.440;2023-11-21T08:13:02;9.30;99.90
19555;DHT22;9924;50.828;6.440;2023-11-21T08:15:28;9.40;99.90
19555;DHT22;9924;50.828;6.440;2023-11-21T08:17:54;9.40;99.90
19555;DHT22;9924;50.828;6.440;2023-11-21T08:20:20;9.50;99.90
19555;DHT22;9924;50.828;6.440;2023-11-21T08:22:48;9.50;99.90
19555;DHT22;9924;50.828;6.440;2023-11-21T08:25:14;9.50;99.90
19555;DHT22;9924;50.828;6.440;2023-11-21T08:27:40;9.60;99.90
19555;DHT22;9924;50.828;6.440;2023-11-21T08:30:06;9.60;99.90
19555;DHT22;9924;50.828;6.440;2023-11-21T08:32:33;9.60;99.90
19555;DHT22;9924;50.828;6.440;2023-11-21T08:34:59;9.70;99.90
19555;DHT22;9924;50.828;6.440;2023-11-21T08:37:26;9.70;99.90
19555;DHT22;9924;50.828;6.440;2023-11-21T08:39:58;9.60;99.90
19555;DHT22;9924;50.828;6.440;2023-11-21T08:42:25;9.60;99.90
19555;DHT22;9924;50.828;6.440;2023-11-21T08:44:56;9.70;99.90
19555;DHT22;9924;50.828;6.440;2023-11-21T08:47:23;9.70;99.90
19555;DHT22;9924;50.828;6.440;2023-11-21T08:49:52;9.70;99.90
19555;DHT22;9924;50.828;6.440;2023-11-21T08:52:19;9.60;99.90
19555;DHT22;9924;50.828;6.440;2023-11-21T08:54:49;9.60;99.90
19555;DHT22;9924;50.828;6.440;2023-11-21T08:57:22;9.70;99.90
19555;DHT22;9924;50.828;6.440;2023-11-21T08:59:48;9.70;99.90
19555;DHT22;9924;50.828;6.440;2023-11-21T09:02:14;9.70;99.90
19555;DHT22;9924;50.828;6.440;2023-11-21T09:04:39;9.80;99.90
19555;DHT22;9924;50.828;6.440;2023-11-21T09:07:05;9.90;99.90
19555;DHT22;9924;50.828;6.440;2023-11-21T09:09:31;9.90;99.90
19555;DHT22;9924;50.828;6.440;2023-11-21T09:11:57;10.00;99.90
19555;DHT22;9924;50.828;6.440;2023-11-21T09:14:22;10.00;99.90
19555;DHT22;9924;50.828;6.440;2023-11-21T09:16:49;10.10;99.90
19555;DHT22;9924;50.828;6.440;2023-11-21T09:19:16;10.20;99.90
19555;DHT22;9924;50.828;6.440;2023-11-21T09:21:42;10.20;99.90
19555;DHT22;9924;50.828;6.440;2023-11-21T09:24:07;10.20;99.90
19555;DHT22;9924;50.828;6.440;2023-11-21T09:26:34;10.10;99.90
19555;DHT22;9924;50.828;6.440;2023-11-21T09:29:00;10.10;99.90
19555;DHT22;9924;50.828;6.440;2023-11-21T09:31:27;10.10;99.90
19555;DHT22;9924;50.828;6.440;2023-11-21T09:33:53;10.20;99.90
19555;DHT22;9924;50.828;6.440;2023-11-21T09:36:19;10.20;99.90
19555;DHT22;9924;50.828;6.440;2023-11-21T09:38:47;10.20;99.90
19555;DHT22;9924;50.828;6.440;2023-11-21T09:41:21;10.10;99.90
19555;DHT22;9924;50.828;6.440;2023-11-21T09:43:47;10.00;99.90
19555;DHT22;9924;50.828;6.440;2023-11-21T09:46:16;9.90;99.90
19555;DHT22;9924;50.828;6.440;2023-11-21T09:48:50;9.80;99.90
19555;DHT22;9924;50.828;6.440;2023-11-21T09:51:19;9.80;99.90
19555;DHT22;9924;50.828;6.440;2023-11-21T09:53:50;9.80;99.90
19555;DHT22;9924;50.828;6.440;2023-11-21T09:56:18;9.90;99.90
19555;DHT22;9924;50.828;6.440;2023-11-21T09:58:51;9.80;99.90
19555;DHT22;9924;50.828;6.440;2023-11-21T10:01:19;9.90;99.90
19555;DHT22;9924;50.828;6.440;2023-11-21T10:03:46;10.00;99.90
19555;DHT22;9924;50.828;6.440;2023-11-21T10:06:13;10.10;99.90
19555;DHT22;9924;50.828;6.440;2023-11-21T10:08:41;10.10;99.90
19555;DHT22;9924;50.828;6.440;2023-11-21T10:11:08;10.20;99.90
19555;DHT22;9924;50.828;6.440;2023-11-21T10:13:37;10.20;99.90
19555;DHT22;9924;50.828;6.440;2023-11-21T10:16:05;10.40;99.90
19555;DHT22;9924;50.828;6.440;2023-11-21T10:18:33;10.50;99.90
19555;DHT22;9924;50.828;6.440;2023-11-21T10:21:00;10.50;99.90
19555;DHT22;9924;50.828;6.440;2023-11-21T10:23:27;10.60;99.90
19555;DHT22;9924;50.828;6.440;2023-11-21T10:25:53;10.70;99.90
19555;DHT22;9924;50.828;6.440;2023-11-21T10:28:20;10.60;99.90
19555;DHT22;9924;50.828;6.440;2023-11-21T10:30:46;10.60;99.90
19555;DHT22;9924;50.828;6.440;2023-11-21T10:33:12;10.60;99.90
19555;DHT22;9924;50.828;6.440;2023-11-21T10:38:05;10.90;99.90
19555;DHT22;9924;50.828;6.440;2023-11-21T10:40:31;11.10;99.90
19555;DHT22;9924;50.828;6.440;2023-11-21T10:43:06;11.20;99.90
19555;DHT22;9924;50.828;6.440;2023-11-21T10:45:35;11.20;99.90
19555;DHT22;9924;50.828;6.440;2023-11-21T10:48:06;11.50;99.90
19555;DHT22;9924;50.828;6.440;2023-11-21T10:50:37;11.50;99.90
19555;DHT22;9924;50.828;6.440;2023-11-21T10:53:09;11.50;99.90
19555;DHT22;9924;50.828;6.440;2023-11-21T10:55:37;11.60;99.90
19555;DHT22;9924;50.828;6.440;2023-11-21T10:58:04;11.50;99.90
19555;DHT22;9924;50.828;6.440;2023-11-21T11:00:32;11.40;99.90
19555;DHT22;9924;50.828;6.440;2023-11-21T11:02:58;11.40;99.90
19555;DHT22;9924;50.828;6.440;2023-11-21T11:05:29;11.40;99.90
19555;DHT22;9924;50.828;6.440;2023-11-21T11:08:08;11.20;99.90
19555;DHT22;9924;50.828;6.440;2023-11-21T11:10:35;11.30;99.90
19555;DHT22;9924;50.828;6.440;2023-11-21T11:13:02;11.30;99.90
19555;DHT22;9924;50.828;6.440;2023-11-21T11:15:28;11.30;99.90
19555;DHT22;9924;50.828;6.440;2023-11-21T11:17:54;11.30;99.90
19555;DHT22;9924;50.828;6.440;2023-11-21T11:20:31;11.30;99.90
19555;DHT22;9924;50.828;6.440;2023-11-21T11:28:21;11.10;99.90
19555;DHT22;9924;50.828;6.440;2023-11-21T11:31:26;11.20;99.90
19555;DHT22;9924;50.828;6.440;2023-11-21T11:37:05;11.40;99.90
19555;DHT22;9924;50.828;6.440;2023-11-21T11:39:39;11.50;99.90
19555;DHT22;9924;50.828;6.440;2023-11-21T11:42:13;11.60;99.90
19555;DHT22;9924;50.828;6.440;2023-11-21T11:52:51;11.80;99.90
19555;DHT22;9924;50.828;6.440;2023-11-21T11:55:20;11.90;99.90
19555;DHT22;9924;50.828;6.440;2023-11-21T11:57:49;12.10;99.90
19555;DHT22;9924;50.828;6.440;2023-11-21T12:02:56;12.10;99.90
19555;DHT22;9924;50.828;6.440;2023-11-21T12:05:27;12.10;99.90
19555;DHT22;9924;50.828;6.440;2023-11-21T12:07:57;12.20;99.90
19555;DHT22;9924;50.828;6.440;2023-11-21T12:10:24;12.00;99.90
19555;DHT22;9924;50.828;6.440;2023-11-21T12:12:52;11.90;99.90
19555;DHT22;9924;50.828;6.440;2023-11-21T12:15:20;12.00;99.90
19555;DHT22;9924;50.828;6.440;2023-11-21T12:17:48;12.10;99.90
19555;DHT22;9924;50.828;6.440;2023-11-21T12:20:24;12.10;99.90
19555;DHT22;9924;50.828;6.440;2023-11-21T12:22:55;12.00;99.90
19555;DHT22;9924;50.828;6.440;2023-11-21T12:25:25;11.90;99.90
19555;DHT22;9924;50.828;6.440;2023-11-21T12:27:55;11.70;99.90
19555;DHT22;9924;50.828;6.440;2023-11-21T12:30:23;11.80;99.90
19555;DHT22;9924;50.828;6.440;2023-11-21T12:32:55;11.90;99.90
19555;DHT22;9924;50.828;6.440;2023-11-21T12:35:31;11.80;99.90
19555;DHT22;9924;50.828;6.440;2023-11-21T12:38:03;11.80;99.90
19555;DHT22;9924;50.828;6.440;2023-11-21T12:40:35;11.80;99.90
19555;DHT22;9924;50.828;6.440;2023-11-21T12:43:01;11.80;99.90
19555;DHT22;9924;50.828;6.440;2023-11-21T12:45:51;12.00;99.90
19555;DHT22;9924;50.828;6.440;2023-11-21T12:48:36;12.40;99.90
19555;DHT22;9924;50.828;6.440;2023-11-21T12:51:28;12.80;99.90
19555;DHT22;9924;50.828;6.440;2023-11-21T12:53:58;12.60;99.90
19555;DHT22;9924;50.828;6.440;2023-11-21T12:57:09;12.30;99.90
19555;DHT22;9924;50.828;6.440;2023-11-21T12:59:39;12.10;99.90
19555;DHT22;9924;50.828;6.440;2023-11-21T13:02:13;12.10;99.90
19555;DHT22;9924;50.828;6.440;2023-11-21T13:04:52;11.90;99.90
19555;DHT22;9924;50.828;6.440;2023-11-21T13:08:23;11.80;99.90
19555;DHT22;9924;50.828;6.440;2023-11-21T13:10:55;11.70;99.90
19555;DHT22;9924;50.828;6.440;2023-11-21T13:13:58;11.60;99.90
19555;DHT22;9924;50.828;6.440;2023-11-21T13:16:47;11.60;99.90
19555;DHT22;9924;50.828;6.440;2023-11-21T13:19:14;11.40;99.90
19555;DHT22;9924;50.828;6.440;2023-11-21T13:21:43;11.20;99.90
19555;DHT22;9924;50.828;6.440;2023-11-21T13:24:22;11.00;99.90
19555;DHT22;9924;50.828;6.440;2023-11-21T13:27:00;11.00;99.90
19555;DHT22;9924;50.828;6.440;2023-11-21T13:29:35;11.00;99.90
19555;DHT22;9924;50.828;6.440;2023-11-21T13:32:08;11.00;99.90
19555;DHT22;9924;50.828;6.440;2023-11-21T13:34:40;11.10;99.90
19555;DHT22;9924;50.828;6.440;2023-11-21T13:37:15;11.20;99.90
19555;DHT22;9924;50.828;6.440;2023-11-21T13:40:05;11.30;99.90
19555;DHT22;9924;50.828;6.440;2023-11-21T13:42:41;11.30;99.90
19555;DHT22;9924;50.828;6.440;2023-11-21T13:45:15;11.20;99.90
19555;DHT22;9924;50.828;6.440;2023-11-21T13:47:53;11.20;99.90
19555;DHT22;9924;50.828;6.440;2023-11-21T13:50:25;11.10;99.90
19555;DHT22;9924;50.828;6.440;2023-11-21T13:53:01;11.00;99.90
19555;DHT22;9924;50.828;6.440;2023-11-21T13:55:45;10.90;99.90
19555;DHT22;9924;50.828;6.440;2023-11-21T13:58:11;10.90;99.90
19555;DHT22;9924;50.828;6.440;2023-11-21T14:00:43;10.90;99.90
19555;DHT22;9924;50.828;6.440;2023-11-21T14:03:18;10.90;99.90
19555;DHT22;9924;50.828;6.440;2023-11-21T14:05:48;10.90;99.90
19555;DHT22;9924;50.828;6.440;2023-11-21T14:08:21;10.90;99.90
19555;DHT22;9924;50.828;6.440;2023-11-21T14:10:49;10.90;99.90
19555;DHT22;9924;50.828;6.440;2023-11-21T14:13:26;10.90;99.90
19555;DHT22;9924;50.828;6.440;2023-11-21T14:15:53;10.80;99.90
19555;DHT22;9924;50.828;6.440;2023-11-21T14:18:32;10.80;99.90
19555;DHT22;9924;50.828;6.440;2023-11-21T14:21:10;10.80;99.90
19555;DHT22;9924;50.828;6.440;2023-11-21T14:23:36;10.90;99.90
19555;DHT22;9924;50.828;6.440;2023-11-21T14:26:14;10.90;99.90
19555;DHT22;9924;50.828;6.440;2023-11-21T14:28:42;10.90;99.90
19555;DHT22;9924;50.828;6.440;2023-11-21T14:31:08;10.90;99.90
19555;DHT22;9924;50.828;6.440;2023-11-21T14:33:39;10.90;99.90
19555;DHT22;9924;50.828;6.440;2023-11-21T14:36:09;10.80;99.90
19555;DHT22;9924;50.828;6.440;2023-11-21T14:38:38;10.80;99.90
19555;DHT22;9924;50.828;6.440;2023-11-21T14:41:08;10.90;99.90
19555;DHT22;9924;50.828;6.440;2023-11-21T14:43:37;10.80;99.90
19555;DHT22;9924;50.828;6.440;2023-11-21T14:46:05;10.80;99.90
19555;DHT22;9924;50.828;6.440;2023-11-21T14:48:49;10.90;99.90
19555;DHT22;9924;50.828;6.440;2023-11-21T14:51:39;10.90;99.90
19555;DHT22;9924;50.828;6.440;2023-11-21T14:54:25;10.90;99.90
19555;DHT22;9924;50.828;6.440;2023-11-21T14:57:15;10.70;99.90
19555;DHT22;9924;50.828;6.440;2023-11-21T15:00:05;10.60;99.90
19555;DHT22;9924;50.828;6.440;2023-11-21T15:02:48;10.60;99.90
19555;DHT22;9924;50.828;6.440;2023-11-21T15:06:01;10.60;99.90
19555;DHT22;9924;50.828;6.440;2023-11-21T15:08:56;10.60;99.90
19555;DHT22;9924;50.828;6.440;2023-11-21T15:11:57;10.50;99.90
19555;DHT22;9924;50.828;6.440;2023-11-21T15:14:33;10.50;99.90
19555;DHT22;9924;50.828;6.440;2023-11-21T15:17:04;10.50;99.90
19555;DHT22;9924;50.828;6.440;2023-11-21T15:19:42;10.50;99.90
19555;DHT22;9924;50.828;6.440;2023-11-21T15:22:13;10.40;99.90
19555;DHT22;9924;50.828;6.440;2023-11-21T15:24:45;10.40;99.90
19555;DHT22;9924;50.828;6.440;2023-11-21T15:27:14;10.40;99.90
19555;DHT22;9924;50.828;6.440;2023-11-21T15:29:44;10.40;99.90
19555;DHT22;9924;50.828;6.440;2023-11-21T15:32:11;10.40;99.90
19555;DHT22;9924;50.828;6.440;2023-11-21T15:34:41;10.40;99.90
19555;DHT22;9924;50.828;6.440;2023-11-21T15:37:34;10.40;99.90
19555;DHT22;9924;50.828;6.440;2023-11-21T15:40:02;10.30;99.90
19555;DHT22;9924;50.828;6.440;2023-11-21T15:42:32;10.30;99.90
19555;DHT22;9924;50.828;6.440;2023-11-21T15:45:06;10.30;99.90
19555;DHT22;9924;50.828;6.440;2023-11-21T15:47:34;10.30;99.90
19555;DHT22;9924;50.828;6.440;2023-11-21T15:50:14;10.30;99.90
19555;DHT22;9924;50.828;6.440;2023-11-21T15:52:53;10.30;99.90
19555;DHT22;9924;50.828;6.440;2023-11-21T15:55:59;10.20;99.90
19555;DHT22;9924;50.828;6.440;2023-11-21T15:58:25;10.20;99.90
19555;DHT22;9924;50.828;6.440;2023-11-21T16:00:58;10.20;99.90
19555;DHT22;9924;50.828;6.440;2023-11-21T16:03:24;10.20;99.90
19555;DHT22;9924;50.828;6.440;2023-11-21T16:06:36;10.20;99.90
19555;DHT22;9924;50.828;6.440;2023-11-21T16:09:06;10.20;99.90
19555;DHT22;9924;50.828;6.440;2023-11-21T16:11:39;10.10;99.90
19555;DHT22;9924;50.828;6.440;2023-11-21T16:14:50;10.10;99.90
19555;DHT22;9924;50.828;6.440;2023-11-21T16:17:22;10.00;99.90
19555;DHT22;9924;50.828;6.440;2023-11-21T16:19:56;10.00;99.90
19555;DHT22;9924;50.828;6.440;2023-11-21T16:22:23;10.00;99.90
19555;DHT22;9924;50.828;6.440;2023-11-21T16:24:55;9.90;99.90
19555;DHT22;9924;50.828;6.440;2023-11-21T16:27:20;9.80;99.90
19555;DHT22;9924;50.828;6.440;2023-11-21T16:29:46;9.80;99.90
19555;DHT22;9924;50.828;6.440;2023-11-21T16:32:13;9.80;99.90